sensor_id;sensor_type;location;lat;lon;timestamp;P1;durP1;ratioP1;P2;durP2;ratioP2
3747;SDS011;1889;50.058;8.688;2022-08-03T00:01:23;2.83;;;2.57;;
3747;SDS011;1889;50.058;8.688;2022-08-03T00:03:54;3.07;;;2.50;;
3747;SDS011;1889;50.058;8.688;2022-08-03T00:06:23;2.40;;;2.20;;
3747;SDS011;1889;50.058;8.688;2022-08-03T00:08:52;3.83;;;2.47;;
3747;SDS011;1889;50.058;8.688;2022-08-03T00:11:23;4.27;;;1.90;;
3747;SDS011;1889;50.058;8.688;2022-08-03T00:13:52;2.50;;;2.30;;
3747;SDS011;1889;50.058;8.688;2022-08-03T00:16:21;2.20;;;2.00;;
3747;SDS011;1889;50.058;8.688;2022-08-03T00:18:52;3.37;;;2.73;;
3747;SDS011;1889;50.058;8.688;2022-08-03T00:21:21;2.43;;;2.13;;
3747;SDS011;1889;50.058;8.688;2022-08-03T00:23:50;2.27;;;2.07;;
3747;SDS011;1889;50.058;8.688;2022-08-03T00:26:19;2.90;;;2.70;;
3747;SDS011;1889;50.058;8.688;2022-08-03T00:28:49;4.00;;;2.33;;
3747;SDS011;1889;50.058;8.688;2022-08-03T00:31:18;4.40;;;2.50;;
3747;SDS011;1889;50.058;8.688;2022-08-03T00:33:47;2.80;;;2.50;;
3747;SDS011;1889;50.058;8.688;2022-08-03T00:36:16;3.57;;;2.50;;
3747;SDS011;1889;50.058;8.688;2022-08-03T00:38:45;3.30;;;2.60;;
3747;SDS011;1889;50.058;8.688;2022-08-03T00:41:14;2.90;;;2.70;;
3747;SDS011;1889;50.058;8.688;2022-08-03T00:43:43;3.93;;;2.60;;
3747;SDS011;1889;50.058;8.688;2022-08-03T00:46:13;2.70;;;2.50;;
3747;SDS011;1889;50.058;8.688;2022-08-03T00:48:42;2.73;;;2.50;;
3747;SDS011;1889;50.058;8.688;2022-08-03T00:51:11;2.70;;;2.50;;
3747;SDS011;1889;50.058;8.688;2022-08-03T00:53:40;16.13;;;3.30;;
3747;SDS011;1889;50.058;8.688;2022-08-03T00:56:12;3.97;;;2.03;;
3747;SDS011;1889;50.058;8.688;2022-08-03T00:58:44;3.03;;;2.80;;
3747;SDS011;1889;50.058;8.688;2022-08-03T01:01:13;3.40;;;2.33;;
3747;SDS011;1889;50.058;8.688;2022-08-03T01:03:43;2.60;;;2.40;;
3747;SDS011;1889;50.058;8.688;2022-08-03T01:06:19;2.80;;;2.50;;
3747;SDS011;1889;50.058;8.688;2022-08-03T01:09:02;5.27;;;2.67;;
3747;SDS011;1889;50.058;8.688;2022-08-03T01:11:47;2.80;;;2.60;;
3747;SDS011;1889;50.058;8.688;2022-08-03T01:14:23;2.60;;;2.40;;
3747;SDS011;1889;50.058;8.688;2022-08-03T01:19:44;2.97;;;2.70;;
3747;SDS011;1889;50.058;8.688;2022-08-03T01:22:41;3.70;;;3.07;;
3747;SDS011;1889;50.058;8.688;2022-08-03T01:25:21;4.10;;;2.70;;
3747;SDS011;1889;50.058;8.688;2022-08-03T01:30:36;3.37;;;2.80;;
3747;SDS011;1889;50.058;8.688;2022-08-03T01:33:14;3.60;;;3.30;;
3747;SDS011;1889;50.058;8.688;2022-08-03T01:35:51;3.10;;;2.77;;
3747;SDS011;1889;50.058;8.688;2022-08-03T01:38:27;2.90;;;2.70;;
3747;SDS011;1889;50.058;8.688;2022-08-03T01:40:53;2.97;;;2.73;;
3747;SDS011;1889;50.058;8.688;2022-08-03T01:43:24;2.70;;;2.50;;
3747;SDS011;1889;50.058;8.688;2022-08-03T01:45:56;2.87;;;2.67;;
3747;SDS011;1889;50.058;8.688;2022-08-03T01:48:25;3.60;;;2.73;;
3747;SDS011;1889;50.058;8.688;2022-08-03T01:50:55;3.00;;;2.80;;
3747;SDS011;1889;50.058;8.688;2022-08-03T01:53:26;3.03;;;2.73;;
3747;SDS011;1889;50.058;8.688;2022-08-03T01:55:58;3.43;;;3.03;;
3747;SDS011;1889;50.058;8.688;2022-08-03T01:58:29;3.17;;;2.87;;
3747;SDS011;1889;50.058;8.688;2022-08-03T02:01:01;2.87;;;2.53;;
3747;SDS011;1889;50.058;8.688;2022-08-03T02:03:33;3.03;;;2.83;;
3747;SDS011;1889;50.058;8.688;2022-08-03T02:06:04;4.50;;;2.57;;
3747;SDS011;1889;50.058;8.688;2022-08-03T02:08:35;3.10;;;2.80;;
3747;SDS011;1889;50.058;8.688;2022-08-03T02:11:06;3.27;;;2.93;;
3747;SDS011;1889;50.058;8.688;2022-08-03T02:13:35;3.47;;;3.10;;
3747;SDS011;1889;50.058;8.688;2022-08-03T02:16:06;2.77;;;2.57;;
3747;SDS011;1889;50.058;8.688;2022-08-03T02:18:37;3.20;;;2.90;;
3747;SDS011;1889;50.058;8.688;2022-08-03T02:21:08;4.17;;;2.80;;
3747;SDS011;1889;50.058;8.688;2022-08-03T02:23:39;3.00;;;2.77;;
3747;SDS011;1889;50.058;8.688;2022-08-03T02:26:09;3.13;;;2.83;;
3747;SDS011;1889;50.058;8.688;2022-08-03T02:28:40;4.83;;;3.20;;
3747;SDS011;1889;50.058;8.688;2022-08-03T02:31:13;3.30;;;2.97;;
3747;SDS011;1889;50.058;8.688;2022-08-03T02:33:55;3.20;;;3.00;;
3747;SDS011;1889;50.058;8.688;2022-08-03T02:36:27;3.00;;;2.70;;
3747;SDS011;1889;50.058;8.688;2022-08-03T02:38:58;4.97;;;3.27;;
3747;SDS011;1889;50.058;8.688;2022-08-03T02:41:31;5.00;;;2.83;;
3747;SDS011;1889;50.058;8.688;2022-08-03T02:44:03;4.10;;;2.93;;
3747;SDS011;1889;50.058;8.688;2022-08-03T02:46:35;4.10;;;3.10;;
3747;SDS011;1889;50.058;8.688;2022-08-03T02:49:09;5.77;;;3.27;;
3747;SDS011;1889;50.058;8.688;2022-08-03T02:51:40;3.43;;;3.13;;
3747;SDS011;1889;50.058;8.688;2022-08-03T02:54:10;3.33;;;3.03;;
3747;SDS011;1889;50.058;8.688;2022-08-03T02:56:43;3.50;;;3.20;;
3747;SDS011;1889;50.058;8.688;2022-08-03T02:59:13;4.00;;;3.00;;
3747;SDS011;1889;50.058;8.688;2022-08-03T03:01:45;3.57;;;3.27;;
3747;SDS011;1889;50.058;8.688;2022-08-03T03:04:15;4.03;;;3.63;;
3747;SDS011;1889;50.058;8.688;2022-08-03T03:06:45;3.40;;;3.10;;
3747;SDS011;1889;50.058;8.688;2022-08-03T03:09:15;2.70;;;2.50;;
3747;SDS011;1889;50.058;8.688;2022-08-03T03:11:45;4.23;;;3.60;;
3747;SDS011;1889;50.058;8.688;2022-08-03T03:14:16;3.50;;;3.20;;
3747;SDS011;1889;50.058;8.688;2022-08-03T03:16:46;3.77;;;3.37;;
3747;SDS011;1889;50.058;8.688;2022-08-03T03:19:16;3.37;;;3.07;;
3747;SDS011;1889;50.058;8.688;2022-08-03T03:21:47;3.90;;;3.20;;
3747;SDS011;1889;50.058;8.688;2022-08-03T03:24:17;3.70;;;3.30;;
3747;SDS011;1889;50.058;8.688;2022-08-03T03:26:46;4.23;;;3.13;;
3747;SDS011;1889;50.058;8.688;2022-08-03T03:29:16;3.67;;;3.37;;
3747;SDS011;1889;50.058;8.688;2022-08-03T03:31:45;4.43;;;3.10;;
3747;SDS011;1889;50.058;8.688;2022-08-03T03:34:15;3.90;;;3.60;;
3747;SDS011;1889;50.058;8.688;2022-08-03T03:36:45;3.93;;;3.60;;
3747;SDS011;1889;50.058;8.688;2022-08-03T03:39:14;3.17;;;2.83;;
3747;SDS011;1889;50.058;8.688;2022-08-03T03:41:43;3.67;;;3.10;;
3747;SDS011;1889;50.058;8.688;2022-08-03T03:44:12;4.13;;;3.50;;
3747;SDS011;1889;50.058;8.688;2022-08-03T03:46:42;3.43;;;3.13;;
3747;SDS011;1889;50.058;8.688;2022-08-03T03:49:11;3.67;;;3.37;;
3747;SDS011;1889;50.058;8.688;2022-08-03T03:51:40;3.83;;;3.03;;
3747;SDS011;1889;50.058;8.688;2022-08-03T03:54:09;4.20;;;3.80;;
3747;SDS011;1889;50.058;8.688;2022-08-03T03:56:38;4.77;;;3.53;;
3747;SDS011;1889;50.058;8.688;2022-08-03T03:59:07;3.87;;;3.33;;
3747;SDS011;1889;50.058;8.688;2022-08-03T04:01:37;3.43;;;3.00;;
3747;SDS011;1889;50.058;8.688;2022-08-03T04:04:06;4.60;;;3.10;;
3747;SDS011;1889;50.058;8.688;2022-08-03T04:06:53;4.17;;;3.33;;
3747;SDS011;1889;50.058;8.688;2022-08-03T04:09:40;3.87;;;3.57;;
3747;SDS011;1889;50.058;8.688;2022-08-03T04:12:28;6.80;;;3.67;;
3747;SDS011;1889;50.058;8.688;2022-08-03T04:14:58;4.40;;;3.47;;
3747;SDS011;1889;50.058;8.688;2022-08-03T04:17:30;3.90;;;3.60;;
3747;SDS011;1889;50.058;8.688;2022-08-03T04:20:00;5.47;;;3.87;;
3747;SDS011;1889;50.058;8.688;2022-08-03T04:22:31;7.83;;;3.57;;
3747;SDS011;1889;50.058;8.688;2022-08-03T04:25:03;3.97;;;3.67;;
3747;SDS011;1889;50.058;8.688;2022-08-03T04:27:35;4.70;;;4.20;;
3747;SDS011;1889;50.058;8.688;2022-08-03T04:30:06;4.47;;;3.67;;
3747;SDS011;1889;50.058;8.688;2022-08-03T04:32:39;3.83;;;3.53;;
3747;SDS011;1889;50.058;8.688;2022-08-03T04:35:11;5.77;;;3.77;;
3747;SDS011;1889;50.058;8.688;2022-08-03T04:37:49;4.93;;;4.17;;
3747;SDS011;1889;50.058;8.688;2022-08-03T04:40:30;4.00;;;3.70;;
3747;SDS011;1889;50.058;8.688;2022-08-03T04:43:04;4.33;;;3.93;;
3747;SDS011;1889;50.058;8.688;2022-08-03T04:45:35;6.12;;;3.83;;
3747;SDS011;1889;50.058;8.688;2022-08-03T04:48:04;4.27;;;3.87;;
3747;SDS011;1889;50.058;8.688;2022-08-03T04:50:34;5.30;;;4.20;;
3747;SDS011;1889;50.058;8.688;2022-08-03T04:53:09;4.87;;;3.97;;
3747;SDS011;1889;50.058;8.688;2022-08-03T04:55:34;4.33;;;3.93;;
3747;SDS011;1889;50.058;8.688;2022-08-03T04:58:04;6.70;;;4.00;;
3747;SDS011;1889;50.058;8.688;2022-08-03T05:00:33;4.20;;;3.90;;
3747;SDS011;1889;50.058;8.688;2022-08-03T05:03:02;4.50;;;4.10;;
3747;SDS011;1889;50.058;8.688;2022-08-03T05:05:31;4.40;;;4.00;;
3747;SDS011;1889;50.058;8.688;2022-08-03T05:08:00;4.60;;;4.20;;
3747;SDS011;1889;50.058;8.688;2022-08-03T05:10:29;4.10;;;3.70;;
3747;SDS011;1889;50.058;8.688;2022-08-03T05:12:58;5.43;;;4.00;;
3747;SDS011;1889;50.058;8.688;2022-08-03T05:15:27;4.40;;;4.07;;
3747;SDS011;1889;50.058;8.688;2022-08-03T05:17:56;6.90;;;4.13;;
3747;SDS011;1889;50.058;8.688;2022-08-03T05:20:25;4.20;;;3.90;;
3747;SDS011;1889;50.058;8.688;2022-08-03T05:22:54;5.70;;;3.80;;
3747;SDS011;1889;50.058;8.688;2022-08-03T05:25:24;8.53;;;3.80;;
3747;SDS011;1889;50.058;8.688;2022-08-03T05:27:53;4.77;;;4.10;;
3747;SDS011;1889;50.058;8.688;2022-08-03T05:30:22;31.77;;;30.50;;
3747;SDS011;1889;50.058;8.688;2022-08-03T05:32:52;1999.90;;;999.90;;
3747;SDS011;1889;50.058;8.688;2022-08-03T05:35:22;1999.90;;;999.90;;
3747;SDS011;1889;50.058;8.688;2022-08-03T05:37:52;1999.90;;;999.90;;
3747;SDS011;1889;50.058;8.688;2022-08-03T05:40:22;1999.90;;;999.90;;
3747;SDS011;1889;50.058;8.688;2022-08-03T05:42:51;1999.90;;;999.90;;
3747;SDS011;1889;50.058;8.688;2022-08-03T05:45:20;1999.90;;;999.90;;
3747;SDS011;1889;50.058;8.688;2022-08-03T05:47:50;1999.90;;;999.90;;
3747;SDS011;1889;50.058;8.688;2022-08-03T05:50:19;1999.90;;;999.90;;
3747;SDS011;1889;50.058;8.688;2022-08-03T05:52:53;1999.90;;;999.90;;
3747;SDS011;1889;50.058;8.688;2022-08-03T05:55:25;1999.90;;;999.90;;
3747;SDS011;1889;50.058;8.688;2022-08-03T05:57:54;1999.90;;;999.90;;
3747;SDS011;1889;50.058;8.688;2022-08-03T06:00:23;1999.90;;;999.90;;
3747;SDS011;1889;50.058;8.688;2022-08-03T06:02:53;1999.90;;;999.90;;
3747;SDS011;1889;50.058;8.688;2022-08-03T06:05:22;1999.90;;;999.90;;
3747;SDS011;1889;50.058;8.688;2022-08-03T06:07:53;1999.90;;;999.90;;
3747;SDS011;1889;50.058;8.688;2022-08-03T06:10:22;28.27;;;27.27;;
3747;SDS011;1889;50.058;8.688;2022-08-03T06:12:52;1999.90;;;999.90;;
3747;SDS011;1889;50.058;8.688;2022-08-03T06:15:21;1999.90;;;999.90;;
3747;SDS011;1889;50.058;8.688;2022-08-03T06:17:50;29.30;;;28.30;;
3747;SDS011;1889;50.058;8.688;2022-08-03T06:20:20;26.03;;;25.13;;
3747;SDS011;1889;50.058;8.688;2022-08-03T06:22:49;33.67;;;32.47;;
3747;SDS011;1889;50.058;8.688;2022-08-03T06:25:18;1999.90;;;999.90;;
3747;SDS011;1889;50.058;8.688;2022-08-03T06:27:47;1999.90;;;999.90;;
3747;SDS011;1889;50.058;8.688;2022-08-03T06:30:17;1999.90;;;999.90;;
3747;SDS011;1889;50.058;8.688;2022-08-03T06:32:46;1999.90;;;999.90;;
3747;SDS011;1889;50.058;8.688;2022-08-03T06:35:15;1999.90;;;999.90;;
3747;SDS011;1889;50.058;8.688;2022-08-03T06:37:46;1999.90;;;999.90;;
3747;SDS011;1889;50.058;8.688;2022-08-03T06:40:17;41.77;;;40.27;;
3747;SDS011;1889;50.058;8.688;2022-08-03T06:42:49;1999.90;;;999.90;;
3747;SDS011;1889;50.058;8.688;2022-08-03T06:45:19;1999.90;;;999.90;;
3747;SDS011;1889;50.058;8.688;2022-08-03T06:47:58;1999.90;;;999.90;;
3747;SDS011;1889;50.058;8.688;2022-08-03T06:50:29;1999.90;;;999.90;;
3747;SDS011;1889;50.058;8.688;2022-08-03T06:52:59;1999.90;;;999.90;;
3747;SDS011;1889;50.058;8.688;2022-08-03T06:55:28;1999.90;;;999.90;;
3747;SDS011;1889;50.058;8.688;2022-08-03T06:57:58;1999.90;;;999.90;;
3747;SDS011;1889;50.058;8.688;2022-08-03T07:00:27;1999.90;;;999.90;;
3747;SDS011;1889;50.058;8.688;2022-08-03T07:02:57;1999.90;;;999.90;;
3747;SDS011;1889;50.058;8.688;2022-08-03T07:05:27;1999.90;;;999.90;;
3747;SDS011;1889;50.058;8.688;2022-08-03T07:07:58;1999.90;;;999.90;;
3747;SDS011;1889;50.058;8.688;2022-08-03T07:10:33;1999.90;;;999.90;;
3747;SDS011;1889;50.058;8.688;2022-08-03T07:13:03;1578.83;;;690.30;;
3747;SDS011;1889;50.058;8.688;2022-08-03T07:15:33;2.80;;;2.50;;
3747;SDS011;1889;50.058;8.688;2022-08-03T07:18:02;5.53;;;2.40;;
3747;SDS011;1889;50.058;8.688;2022-08-03T07:20:32;3.80;;;2.50;;
3747;SDS011;1889;50.058;8.688;2022-08-03T07:23:01;2.87;;;2.67;;
3747;SDS011;1889;50.058;8.688;2022-08-03T07:25:30;2.80;;;2.60;;
3747;SDS011;1889;50.058;8.688;2022-08-03T07:27:59;2.80;;;2.50;;
3747;SDS011;1889;50.058;8.688;2022-08-03T07:30:28;4.13;;;2.60;;
3747;SDS011;1889;50.058;8.688;2022-08-03T07:32:57;4.07;;;2.97;;
3747;SDS011;1889;50.058;8.688;2022-08-03T07:35:26;3.13;;;2.70;;
3747;SDS011;1889;50.058;8.688;2022-08-03T07:37:55;5.20;;;3.00;;
3747;SDS011;1889;50.058;8.688;2022-08-03T07:40:24;3.63;;;2.47;;
3747;SDS011;1889;50.058;8.688;2022-08-03T07:42:53;3.20;;;2.60;;
3747;SDS011;1889;50.058;8.688;2022-08-03T07:45:24;3.33;;;2.60;;
3747;SDS011;1889;50.058;8.688;2022-08-03T07:47:53;3.13;;;2.70;;
3747;SDS011;1889;50.058;8.688;2022-08-03T07:50:22;5.90;;;2.93;;
3747;SDS011;1889;50.058;8.688;2022-08-03T07:52:51;3.60;;;2.77;;
3747;SDS011;1889;50.058;8.688;2022-08-03T07:55:23;4.47;;;2.67;;
3747;SDS011;1889;50.058;8.688;2022-08-03T07:58:00;4.70;;;3.03;;
3747;SDS011;1889;50.058;8.688;2022-08-03T08:00:33;5.07;;;3.03;;
3747;SDS011;1889;50.058;8.688;2022-08-03T08:03:03;5.43;;;2.90;;
3747;SDS011;1889;50.058;8.688;2022-08-03T08:05:32;2.40;;;2.20;;
3747;SDS011;1889;50.058;8.688;2022-08-03T08:08:02;4.80;;;2.67;;
3747;SDS011;1889;50.058;8.688;2022-08-03T08:10:31;3.00;;;2.60;;
3747;SDS011;1889;50.058;8.688;2022-08-03T08:13:02;3.20;;;2.47;;
3747;SDS011;1889;50.058;8.688;2022-08-03T08:15:31;2.90;;;2.67;;
3747;SDS011;1889;50.058;8.688;2022-08-03T08:18:00;2.67;;;2.47;;
3747;SDS011;1889;50.058;8.688;2022-08-03T08:20:30;3.20;;;2.20;;
3747;SDS011;1889;50.058;8.688;2022-08-03T08:23:03;2.50;;;2.30;;
3747;SDS011;1889;50.058;8.688;2022-08-03T08:25:32;2.50;;;2.30;;
3747;SDS011;1889;50.058;8.688;2022-08-03T08:28:01;3.47;;;2.23;;
3747;SDS011;1889;50.058;8.688;2022-08-03T08:30:31;4.93;;;2.47;;
3747;SDS011;1889;50.058;8.688;2022-08-03T08:33:00;3.53;;;2.53;;
3747;SDS011;1889;50.058;8.688;2022-08-03T08:35:29;13.20;;;4.33;;
3747;SDS011;1889;50.058;8.688;2022-08-03T08:37:59;5.10;;;3.67;;
3747;SDS011;1889;50.058;8.688;2022-08-03T08:40:28;3.50;;;2.57;;
3747;SDS011;1889;50.058;8.688;2022-08-03T08:42:57;4.07;;;2.43;;
3747;SDS011;1889;50.058;8.688;2022-08-03T08:45:26;4.57;;;2.60;;
3747;SDS011;1889;50.058;8.688;2022-08-03T08:47:56;4.50;;;2.40;;
3747;SDS011;1889;50.058;8.688;2022-08-03T08:50:27;313.27;;;163.20;;
3747;SDS011;1889;50.058;8.688;2022-08-03T08:52:57;1999.90;;;999.90;;
3747;SDS011;1889;50.058;8.688;2022-08-03T08:55:29;713.77;;;375.63;;
3747;SDS011;1889;50.058;8.688;2022-08-03T08:58:00;1999.90;;;999.90;;
3747;SDS011;1889;50.058;8.688;2022-08-03T09:00:31;2.53;;;2.30;;
3747;SDS011;1889;50.058;8.688;2022-08-03T09:03:00;2.20;;;2.00;;
3747;SDS011;1889;50.058;8.688;2022-08-03T09:05:29;2.20;;;2.00;;
3747;SDS011;1889;50.058;8.688;2022-08-03T09:07:58;2.17;;;2.00;;
3747;SDS011;1889;50.058;8.688;2022-08-03T09:10:28;2.40;;;2.20;;
3747;SDS011;1889;50.058;8.688;2022-08-03T09:12:57;7.73;;;2.80;;
3747;SDS011;1889;50.058;8.688;2022-08-03T09:15:29;2.10;;;1.90;;
3747;SDS011;1889;50.058;8.688;2022-08-03T09:17:59;3.20;;;2.27;;
3747;SDS011;1889;50.058;8.688;2022-08-03T09:20:30;2.60;;;2.40;;
3747;SDS011;1889;50.058;8.688;2022-08-03T09:23:07;2.73;;;2.20;;
3747;SDS011;1889;50.058;8.688;2022-08-03T09:25:38;2.10;;;2.00;;
3747;SDS011;1889;50.058;8.688;2022-08-03T09:28:09;3.93;;;2.63;;
3747;SDS011;1889;50.058;8.688;2022-08-03T09:30:44;1364.00;;;694.07;;
3747;SDS011;1889;50.058;8.688;2022-08-03T09:33:15;3.10;;;2.00;;
3747;SDS011;1889;50.058;8.688;2022-08-03T09:35:45;3.37;;;2.17;;
3747;SDS011;1889;50.058;8.688;2022-08-03T09:38:16;2.23;;;2.03;;
3747;SDS011;1889;50.058;8.688;2022-08-03T09:40:48;3.63;;;2.60;;
3747;SDS011;1889;50.058;8.688;2022-08-03T09:43:17;2.63;;;2.17;;
3747;SDS011;1889;50.058;8.688;2022-08-03T09:45:46;5.77;;;2.03;;
3747;SDS011;1889;50.058;8.688;2022-08-03T09:48:19;3.93;;;2.07;;
3747;SDS011;1889;50.058;8.688;2022-08-03T09:50:58;2.53;;;2.27;;
3747;SDS011;1889;50.058;8.688;2022-08-03T09:53:24;4.60;;;2.17;;
3747;SDS011;1889;50.058;8.688;2022-08-03T09:55:54;3.37;;;2.00;;
3747;SDS011;1889;50.058;8.688;2022-08-03T09:58:26;2.20;;;2.00;;
3747;SDS011;1889;50.058;8.688;2022-08-03T10:00:59;3.47;;;1.87;;
3747;SDS011;1889;50.058;8.688;2022-08-03T10:03:33;4.27;;;1.60;;
3747;SDS011;1889;50.058;8.688;2022-08-03T10:06:18;2.30;;;2.10;;
3747;SDS011;1889;50.058;8.688;2022-08-03T10:08:46;1.60;;;1.50;;
3747;SDS011;1889;50.058;8.688;2022-08-03T10:11:35;4.47;;;2.00;;
3747;SDS011;1889;50.058;8.688;2022-08-03T10:14:06;2.37;;;2.20;;
3747;SDS011;1889;50.058;8.688;2022-08-03T10:16:45;2.10;;;1.90;;
3747;SDS011;1889;50.058;8.688;2022-08-03T10:19:15;1.80;;;1.70;;
3747;SDS011;1889;50.058;8.688;2022-08-03T10:21:46;1.87;;;1.70;;
3747;SDS011;1889;50.058;8.688;2022-08-03T10:24:19;2.60;;;1.90;;
3747;SDS011;1889;50.058;8.688;2022-08-03T10:26:49;2.87;;;1.90;;
3747;SDS011;1889;50.058;8.688;2022-08-03T10:29:20;3.57;;;1.70;;
3747;SDS011;1889;50.058;8.688;2022-08-03T10:31:52;3.57;;;1.83;;
3747;SDS011;1889;50.058;8.688;2022-08-03T10:34:24;4.93;;;2.20;;
3747;SDS011;1889;50.058;8.688;2022-08-03T10:36:57;3.20;;;1.80;;
3747;SDS011;1889;50.058;8.688;2022-08-03T10:39:27;3.20;;;2.67;;
3747;SDS011;1889;50.058;8.688;2022-08-03T10:41:57;2.40;;;2.17;;
3747;SDS011;1889;50.058;8.688;2022-08-03T10:44:27;2.20;;;2.10;;
3747;SDS011;1889;50.058;8.688;2022-08-03T10:46:58;2.00;;;1.90;;
3747;SDS011;1889;50.058;8.688;2022-08-03T10:49:27;2.10;;;1.90;;
3747;SDS011;1889;50.058;8.688;2022-08-03T10:51:58;2.30;;;1.73;;
3747;SDS011;1889;50.058;8.688;2022-08-03T11:00:16;3.13;;;2.33;;
3747;SDS011;1889;50.058;8.688;2022-08-03T11:05:44;2.57;;;2.20;;
3747;SDS011;1889;50.058;8.688;2022-08-03T11:08:18;2.43;;;2.20;;
3747;SDS011;1889;50.058;8.688;2022-08-03T11:10:50;2.50;;;2.30;;
3747;SDS011;1889;50.058;8.688;2022-08-03T11:13:22;3.93;;;2.40;;
3747;SDS011;1889;50.058;8.688;2022-08-03T11:15:53;2.30;;;1.90;;
3747;SDS011;1889;50.058;8.688;2022-08-03T11:18:24;4.00;;;2.30;;
3747;SDS011;1889;50.058;8.688;2022-08-03T11:20:59;3.30;;;2.03;;
3747;SDS011;1889;50.058;8.688;2022-08-03T11:23:44;2.30;;;2.17;;
3747;SDS011;1889;50.058;8.688;2022-08-03T11:26:18;2.57;;;2.37;;
3747;SDS011;1889;50.058;8.688;2022-08-03T11:28:50;4.20;;;2.03;;
3747;SDS011;1889;50.058;8.688;2022-08-03T11:34:03;2.07;;;1.97;;
3747;SDS011;1889;50.058;8.688;2022-08-03T11:39:41;3.80;;;1.80;;
3747;SDS011;1889;50.058;8.688;2022-08-03T11:44:55;1.80;;;1.70;;
3747;SDS011;1889;50.058;8.688;2022-08-03T11:47:26;2.07;;;1.83;;
3747;SDS011;1889;50.058;8.688;2022-08-03T11:49:57;369.53;;;224.47;;
3747;SDS011;1889;50.058;8.688;2022-08-03T11:52:34;4.33;;;2.20;;
3747;SDS011;1889;50.058;8.688;2022-08-03T11:55:09;2.27;;;2.07;;
3747;SDS011;1889;50.058;8.688;2022-08-03T11:57:39;1.87;;;1.77;;
3747;SDS011;1889;50.058;8.688;2022-08-03T12:00:26;2.30;;;2.10;;
3747;SDS011;1889;50.058;8.688;2022-08-03T12:03:02;2.33;;;2.13;;
3747;SDS011;1889;50.058;8.688;2022-08-03T12:05:32;2.23;;;2.00;;
3747;SDS011;1889;50.058;8.688;2022-08-03T12:08:03;2.07;;;1.97;;
3747;SDS011;1889;50.058;8.688;2022-08-03T12:10:33;2.57;;;2.00;;
3747;SDS011;1889;50.058;8.688;2022-08-03T12:13:03;1.90;;;1.80;;
3747;SDS011;1889;50.058;8.688;2022-08-03T12:15:35;1.87;;;1.77;;
3747;SDS011;1889;50.058;8.688;2022-08-03T12:18:12;3.90;;;1.53;;
3747;SDS011;1889;50.058;8.688;2022-08-03T12:20:45;1.80;;;1.70;;
3747;SDS011;1889;50.058;8.688;2022-08-03T12:23:15;2.23;;;1.80;;
3747;SDS011;1889;50.058;8.688;2022-08-03T12:25:45;2.00;;;1.90;;
3747;SDS011;1889;50.058;8.688;2022-08-03T12:28:16;1.70;;;1.50;;
3747;SDS011;1889;50.058;8.688;2022-08-03T12:30:48;4.03;;;2.17;;
3747;SDS011;1889;50.058;8.688;2022-08-03T12:33:20;2.63;;;1.70;;
3747;SDS011;1889;50.058;8.688;2022-08-03T12:36:13;1.80;;;1.70;;
3747;SDS011;1889;50.058;8.688;2022-08-03T12:38:37;2.20;;;1.70;;
3747;SDS011;1889;50.058;8.688;2022-08-03T12:41:08;1.80;;;1.70;;
3747;SDS011;1889;50.058;8.688;2022-08-03T12:43:48;2.00;;;1.80;;
3747;SDS011;1889;50.058;8.688;2022-08-03T12:46:17;3.97;;;2.23;;
3747;SDS011;1889;50.058;8.688;2022-08-03T12:48:56;2.67;;;1.90;;
3747;SDS011;1889;50.058;8.688;2022-08-03T12:51:35;3.47;;;1.77;;
3747;SDS011;1889;50.058;8.688;2022-08-03T12:54:18;1.90;;;1.80;;
3747;SDS011;1889;50.058;8.688;2022-08-03T12:59:33;1.80;;;1.70;;
3747;SDS011;1889;50.058;8.688;2022-08-03T13:02:02;1.73;;;1.40;;
3747;SDS011;1889;50.058;8.688;2022-08-03T13:04:32;130.33;;;17.23;;
3747;SDS011;1889;50.058;8.688;2022-08-03T13:07:08;2.33;;;1.70;;
3747;SDS011;1889;50.058;8.688;2022-08-03T13:09:44;2.47;;;1.70;;
3747;SDS011;1889;50.058;8.688;2022-08-03T13:12:18;1.63;;;1.53;;
3747;SDS011;1889;50.058;8.688;2022-08-03T13:14:57;2.00;;;1.90;;
3747;SDS011;1889;50.058;8.688;2022-08-03T13:17:27;1.80;;;1.70;;
3747;SDS011;1889;50.058;8.688;2022-08-03T13:19:56;3.97;;;1.87;;
3747;SDS011;1889;50.058;8.688;2022-08-03T13:22:25;2.43;;;2.03;;
3747;SDS011;1889;50.058;8.688;2022-08-03T13:24:55;2.57;;;1.80;;
3747;SDS011;1889;50.058;8.688;2022-08-03T13:27:27;2.20;;;1.90;;
3747;SDS011;1889;50.058;8.688;2022-08-03T13:29:57;2.03;;;1.87;;
3747;SDS011;1889;50.058;8.688;2022-08-03T13:32:26;4.67;;;1.90;;
3747;SDS011;1889;50.058;8.688;2022-08-03T13:34:55;2.90;;;2.70;;
3747;SDS011;1889;50.058;8.688;2022-08-03T13:37:24;5.23;;;1.80;;
3747;SDS011;1889;50.058;8.688;2022-08-03T13:39:53;2.37;;;2.17;;
3747;SDS011;1889;50.058;8.688;2022-08-03T13:42:23;3.13;;;1.80;;
3747;SDS011;1889;50.058;8.688;2022-08-03T13:44:52;1.63;;;1.53;;
3747;SDS011;1889;50.058;8.688;2022-08-03T13:47:21;1.83;;;1.73;;
3747;SDS011;1889;50.058;8.688;2022-08-03T13:49:50;2.30;;;1.90;;
3747;SDS011;1889;50.058;8.688;2022-08-03T13:52:19;2.07;;;1.70;;
3747;SDS011;1889;50.058;8.688;2022-08-03T13:54:48;1.80;;;1.70;;
3747;SDS011;1889;50.058;8.688;2022-08-03T13:57:17;1.97;;;1.80;;
3747;SDS011;1889;50.058;8.688;2022-08-03T13:59:46;1.80;;;1.70;;
3747;SDS011;1889;50.058;8.688;2022-08-03T14:02:17;2.83;;;1.90;;
3747;SDS011;1889;50.058;8.688;2022-08-03T14:04:46;1.80;;;1.70;;
3747;SDS011;1889;50.058;8.688;2022-08-03T14:07:15;3.40;;;2.10;;
3747;SDS011;1889;50.058;8.688;2022-08-03T14:09:44;4.40;;;2.00;;
3747;SDS011;1889;50.058;8.688;2022-08-03T14:12:13;4.30;;;1.90;;
3747;SDS011;1889;50.058;8.688;2022-08-03T14:14:42;2.00;;;1.67;;
3747;SDS011;1889;50.058;8.688;2022-08-03T14:17:11;2.13;;;1.60;;
3747;SDS011;1889;50.058;8.688;2022-08-03T14:19:40;3.33;;;2.40;;
3747;SDS011;1889;50.058;8.688;2022-08-03T14:22:09;3.27;;;1.93;;
3747;SDS011;1889;50.058;8.688;2022-08-03T14:24:38;1.60;;;1.50;;
3747;SDS011;1889;50.058;8.688;2022-08-03T14:27:07;2.70;;;1.67;;
3747;SDS011;1889;50.058;8.688;2022-08-03T14:29:36;1.60;;;1.50;;
3747;SDS011;1889;50.058;8.688;2022-08-03T14:32:05;1.83;;;1.63;;
3747;SDS011;1889;50.058;8.688;2022-08-03T14:34:34;1.97;;;1.80;;
3747;SDS011;1889;50.058;8.688;2022-08-03T14:37:03;2.03;;;1.90;;
3747;SDS011;1889;50.058;8.688;2022-08-03T14:39:32;1.80;;;1.70;;
3747;SDS011;1889;50.058;8.688;2022-08-03T14:42:02;4.10;;;1.90;;
3747;SDS011;1889;50.058;8.688;2022-08-03T14:44:31;3.47;;;1.50;;
3747;SDS011;1889;50.058;8.688;2022-08-03T14:47:00;2.73;;;2.53;;
3747;SDS011;1889;50.058;8.688;2022-08-03T14:49:29;2.87;;;2.00;;
3747;SDS011;1889;50.058;8.688;2022-08-03T14:51:58;2.63;;;2.13;;
3747;SDS011;1889;50.058;8.688;2022-08-03T14:54:27;1.97;;;1.87;;
3747;SDS011;1889;50.058;8.688;2022-08-03T14:56:57;2.10;;;1.80;;
3747;SDS011;1889;50.058;8.688;2022-08-03T14:59:26;3.07;;;1.93;;
3747;SDS011;1889;50.058;8.688;2022-08-03T15:01:55;2.63;;;1.70;;
3747;SDS011;1889;50.058;8.688;2022-08-03T15:04:24;2.23;;;2.03;;
3747;SDS011;1889;50.058;8.688;2022-08-03T15:06:53;1.80;;;1.70;;
3747;SDS011;1889;50.058;8.688;2022-08-03T15:09:22;2.97;;;1.80;;
3747;SDS011;1889;50.058;8.688;2022-08-03T15:11:51;2.33;;;2.17;;
3747;SDS011;1889;50.058;8.688;2022-08-03T15:14:20;4.93;;;2.30;;
3747;SDS011;1889;50.058;8.688;2022-08-03T15:16:49;2.27;;;2.10;;
3747;SDS011;1889;50.058;8.688;2022-08-03T15:19:19;2.00;;;1.90;;
3747;SDS011;1889;50.058;8.688;2022-08-03T15:21:48;4.70;;;2.13;;
3747;SDS011;1889;50.058;8.688;2022-08-03T15:24:17;2.50;;;2.00;;
3747;SDS011;1889;50.058;8.688;2022-08-03T15:26:46;2.50;;;1.83;;
3747;SDS011;1889;50.058;8.688;2022-08-03T15:29:15;2.20;;;2.07;;
3747;SDS011;1889;50.058;8.688;2022-08-03T15:31:44;4.90;;;2.37;;
3747;SDS011;1889;50.058;8.688;2022-08-03T15:34:13;3.40;;;2.13;;
3747;SDS011;1889;50.058;8.688;2022-08-03T15:36:42;2.87;;;1.60;;
3747;SDS011;1889;50.058;8.688;2022-08-03T15:39:11;5.03;;;2.40;;
3747;SDS011;1889;50.058;8.688;2022-08-03T15:41:40;1.90;;;1.67;;
3747;SDS011;1889;50.058;8.688;2022-08-03T15:44:09;3.07;;;1.83;;
3747;SDS011;1889;50.058;8.688;2022-08-03T15:46:38;2.23;;;1.67;;
3747;SDS011;1889;50.058;8.688;2022-08-03T15:49:07;2.00;;;1.80;;
3747;SDS011;1889;50.058;8.688;2022-08-03T15:51:36;2.10;;;1.80;;
3747;SDS011;1889;50.058;8.688;2022-08-03T15:54:05;1.73;;;1.63;;
3747;SDS011;1889;50.058;8.688;2022-08-03T15:56:35;2.87;;;2.00;;